Latacunga, Ecuador

11:54 AM ECT on August 30, 2014 (GMT -0500)
Cotopaxi International | Change Station
CLOSE
Current Station
Airport
Location: Latacunga,
Elevation: 9137 ft
Nearby Weather Stations

Elev 9137 ft 0.91 °S, 78.62 °W | Updated 54 minutes ago

Mostly Cloudy
Mostly Cloudy
59 °F
Feels Like 59 °F
N
18
Wind Variable Wind from South

Today
High -- | Low -- °F
--% Chance of Precip.
Yesterday
High -- | Low -- °F
Precip. -- in
6:12 AM 6:17 PM
Waxing Crescent, 23% visible
Pressure 30.51 in
Visibility 6.2 miles
Clouds Mostly Cloudy 3000 ft
Dew Point 46 °F
Humidity 63%
Rainfall 0.00 in
Snow Depth Not available.
UV 9 out of 12
Pollen Not available.
Air Quality Not available.
Flu Activity Not available.
METAR SELT 301600Z 18016KT 9999 BKN030 15/08 Q1033

More Conditions Fewer Conditions

Pressure 30.51 in
Visibility 6.2 miles
Clouds Mostly Cloudy 3000 ft
Dew Point 46 °F
Humidity 63%
Rainfall 0.00 in
Snow Depth Not available.
UV 9 out of 12
Pollen Not available.
Air Quality Not available.
Flu Activity Not available.
METAR SELT 301600Z 18016KT 9999 BKN030 15/08 Q1033

More Conditions Fewer Conditions

10-Day Weather Forecast

Almanac

Astronomy

Aug. 30, 2014 Rise Set
Actual Time 6:12 AM ECT 6:17 PM ECT
Civil Twilight 5:51 AM ECT 6:38 PM ECT
Nautical Twilight 5:27 AM ECT 7:02 PM ECT
Astronomical Twilight 5:02 AM ECT 7:27 PM ECT
Moon 9:44 AM ECT 10:09 PM ECT
Length of Visible Light 12h 47m
Length of Day
12h 05m
Tomorrow will be 0m 2s longer.
Waxing Crescent, 23% of the Moon is Illuminated
Today
Waxing Crescent
Sep 2
First Quarter
Sep 8
Full
Sep 15
Last Quarter
Sep 24
New

Today's Extremes

Country Highs Country Lows

Community

WunderPhotos

Upload Photos

1,748,562 photos uploaded!

WunderBlogs® & News

Nearby

Snow Depth

Not available.

Earthquake Activity

City Distance Mag. Time & Date
No recent earthquake activity has been reported nearby.
Minimum magnitude displayed is 2.5.

Coastal Water Temperatures

Place Temperature
No Stations Reporting

Nearby Weather Stations